Time;durP1;ratioP1;P1;durP2;ratioP2;P2;SDS_P1;SDS_P2;PMS_P1;PMS_P2;Temp;Humidity;BMP_temperature;BMP_pressure;BME280_temperature;BME280_humidity;BME280_pressure;Samples;Min_cycle;Max_cycle;Signal;HPM_P1;HPM_P2
2022/12/21 00:01:22;;;;;;;5.07;3.50;;;;;;;-2.57;nan;-23742.09;5034451;28;20205;-71
2022/12/21 00:03:52;;;;;;;6.43;4.27;;;;;;;-2.49;nan;-23744.38;5033791;28;20235;-73
2022/12/21 00:06:18;;;;;;;3.87;3.53;;;;;;;-2.82;nan;-23735.19;5034674;28;20518;-70
2022/12/21 00:08:46;;;;;;;7.43;5.33;;;;;;;-2.37;nan;-23747.84;5034097;28;20673;-70
2022/12/21 00:11:13;;;;;;;8.73;3.27;;;;;;;-2.78;nan;-23736.22;5034705;28;20173;-69
2022/12/21 00:13:38;;;;;;;4.30;3.83;;;;;;;-2.86;nan;-23734.03;5034285;28;20179;-71
2022/12/21 00:16:07;;;;;;;7.27;4.17;;;;;;;-2.90;nan;-23732.91;5034227;28;20279;-69
2022/12/21 00:18:37;;;;;;;5.30;4.27;;;;;;;-2.95;nan;-23731.47;5034064;28;20207;-69
2022/12/21 00:21:05;;;;;;;13.13;5.53;;;;;;;-2.53;nan;-23743.25;5033711;28;20174;-71
2022/12/21 00:23:31;;;;;;;15.33;5.67;;;;;;;-2.47;nan;-23744.97;5035783;28;20183;-72
2022/12/21 00:26:03;;;;;;;5.50;4.73;;;;;;;-2.70;nan;-23738.50;5033625;28;20182;-70
2022/12/21 00:28:28;;;;;;;5.47;4.93;;;;;;;-2.54;nan;-23743.09;5033807;28;20179;-70
2022/12/21 00:30:54;;;;;;;12.27;3.77;;;;;;;-2.63;nan;-23740.38;5032672;28;20661;-70
2022/12/21 00:33:20;;;;;;;12.97;4.60;;;;;;;-2.51;nan;-23743.97;5033764;28;20505;-72
2022/12/21 00:35:49;;;;;;;8.00;4.70;;;;;;;-2.84;nan;-23734.63;5033245;28;20242;-71
2022/12/21 00:38:15;;;;;;;8.13;5.40;;;;;;;-2.81;nan;-23735.47;5036181;28;20621;-70
2022/12/21 00:40:42;;;;;;;6.73;2.93;;;;;;;-2.55;nan;-23742.66;5038094;28;20188;-71
2022/12/21 00:43:07;;;;;;;9.30;4.43;;;;;;;-2.64;nan;-23740.09;5033417;28;20171;-70
2022/12/21 00:45:32;;;;;;;8.67;4.87;;;;;;;-3.15;nan;-23725.72;5033767;28;20178;-71
2022/12/21 00:47:58;;;;;;;8.20;5.37;;;;;;;-3.15;nan;-23725.84;5033149;28;20670;-71
2022/12/21 00:50:23;;;;;;;8.27;5.20;;;;;;;-2.68;nan;-23739.22;5033096;28;20173;-70
2022/12/21 00:52:49;;;;;;;6.70;3.87;;;;;;;-2.94;nan;-23731.75;5033887;28;20195;-72
2022/12/21 00:55:14;;;;;;;8.20;4.23;;;;;;;-2.94;nan;-23731.75;5033469;28;20171;-71
2022/12/21 00:57:39;;;;;;;14.40;6.07;;;;;;;-2.99;nan;-23730.31;5032775;28;20191;-71
2022/12/21 01:00:06;;;;;;;5.97;4.43;;;;;;;-2.99;nan;-23730.31;5035219;28;20210;-71
2022/12/21 01:02:31;;;;;;;8.50;5.97;;;;;;;-2.98;nan;-23730.44;5033822;28;20647;-71
2022/12/21 01:04:56;;;;;;;15.83;4.03;;;;;;;-2.90;nan;-23732.91;5033601;28;20229;-70
2022/12/21 01:07:22;;;;;;;11.37;4.97;;;;;;;-2.76;nan;-23736.91;5033229;28;20180;-72
2022/12/21 01:09:47;;;;;;;6.20;4.57;;;;;;;-2.72;nan;-23738.06;5033323;28;20184;-71
2022/12/21 01:12:12;;;;;;;16.07;4.40;;;;;;;-3.17;nan;-23725.13;5032857;28;20204;-72
2022/12/21 01:14:38;;;;;;;6.70;4.57;;;;;;;-3.05;nan;-23728.44;5032749;28;20555;-71
2022/12/21 01:17:03;;;;;;;6.27;4.93;;;;;;;-2.69;nan;-23738.94;5033347;28;20208;-69
2022/12/21 01:19:29;;;;;;;9.23;4.40;;;;;;;-3.04;nan;-23728.88;5032726;28;20730;-71
2022/12/21 01:21:54;;;;;;;7.17;5.03;;;;;;;-2.68;nan;-23739.22;5032738;28;20567;-71
2022/12/21 01:24:19;;;;;;;4.17;3.37;;;;;;;-3.01;nan;-23729.59;5033032;28;20220;-71
2022/12/21 01:26:45;;;;;;;9.90;5.20;;;;;;;-2.78;nan;-23736.34;5032922;28;20177;-70
2022/12/21 01:29:13;;;;;;;10.17;6.63;;;;;;;-3.15;nan;-23725.72;5030874;28;20184;-71
2022/12/21 01:31:39;;;;;;;8.30;5.20;;;;;;;-2.91;nan;-23732.59;5032918;28;20170;-71
2022/12/21 01:34:05;;;;;;;7.53;4.67;;;;;;;-2.88;nan;-23733.47;5033759;28;20281;-72
2022/12/21 01:36:31;;;;;;;7.43;4.77;;;;;;;-3.13;nan;-23726.28;5037223;28;20199;-72
2022/12/21 01:38:56;;;;;;;4.93;4.30;;;;;;;-2.84;nan;-23734.63;5032108;28;20591;-70
2022/12/21 01:41:25;;;;;;;15.73;5.77;;;;;;;-3.11;nan;-23726.84;5032892;28;20177;-71
2022/12/21 01:43:54;;;;;;;3.37;3.03;;;;;;;-2.80;nan;-23735.63;5032684;28;20189;-74
2022/12/21 01:46:20;;;;;;;6.10;4.20;;;;;;;-2.85;nan;-23734.34;5032530;28;20172;-71
2022/12/21 01:48:58;;;;;;;7.30;4.90;;;;;;;-3.06;nan;-23728.31;5032298;28;20700;-71
2022/12/21 01:51:24;;;;;;;6.33;4.20;;;;;;;-3.01;nan;-23729.75;5032678;28;20652;-71
2022/12/21 01:53:57;;;;;;;12.80;5.77;;;;;;;-3.40;nan;-23718.66;5032552;28;20161;-72
2022/12/21 01:56:28;;;;;;;7.27;4.90;;;;;;;-3.03;nan;-23729.16;5033040;28;20186;-70
2022/12/21 01:58:53;;;;;;;4.53;4.13;;;;;;;-3.07;nan;-23727.88;5031049;28;20621;-71
2022/12/21 02:01:19;;;;;;;10.37;4.80;;;;;;;-3.45;nan;-23717.22;5031809;28;20379;-71
2022/12/21 02:03:52;;;;;;;9.03;4.90;;;;;;;-3.38;nan;-23719.09;5031184;28;20314;-71
2022/12/21 02:06:22;;;;;;;9.40;4.43;;;;;;;-3.27;nan;-23722.41;5031968;28;20170;-71
2022/12/21 02:08:48;;;;;;;4.87;3.67;;;;;;;-3.56;nan;-23714.19;5032095;28;20191;-69
2022/12/21 02:11:15;;;;;;;5.30;4.37;;;;;;;-3.17;nan;-23725.28;5037118;28;20577;-70
2022/12/21 02:13:41;;;;;;;6.70;3.27;;;;;;;-3.20;nan;-23724.41;5031743;28;20228;-71
2022/12/21 02:16:28;;;;;;;3.63;3.33;;;;;;;-3.54;nan;-23714.50;5031876;28;20245;-70
2022/12/21 02:19:21;;;;;;;10.00;4.77;;;;;;;-3.06;nan;-23728.16;5030415;28;20649;-71
2022/12/21 02:21:52;;;;;;;6.70;4.63;;;;;;;-3.23;nan;-23723.41;5031858;28;20639;-70
2022/12/21 02:25:02;;;;;;;5.57;4.30;;;;;;;-3.31;nan;-23721.25;5031510;28;20214;-72
2022/12/21 02:27:39;;;;;;;3.83;3.13;;;;;;;-3.26;nan;-23722.69;5015639;28;20245;-71
2022/12/21 02:30:05;;;;;;;6.77;5.30;;;;;;;-3.64;nan;-23711.75;5031545;28;20197;-71
2022/12/21 02:32:42;;;;;;;3.87;3.47;;;;;;;-3.27;nan;-23722.25;5031650;28;20257;-71
2022/12/21 02:35:32;;;;;;;4.10;3.43;;;;;;;-3.31;nan;-23721.09;5031802;28;20259;-71
2022/12/21 02:38:20;;;;;;;4.60;4.00;;;;;;;-3.56;nan;-23714.19;5031984;28;20199;-71
2022/12/21 02:41:02;;;;;;;5.50;3.07;;;;;;;-3.80;nan;-23707.31;5031779;28;20183;-72
2022/12/21 02:46:19;;;;;;;5.53;3.60;;;;;;;-3.54;nan;-23714.63;5032737;28;20612;-72
2022/12/21 02:48:47;;;;;;;9.80;4.83;;;;;;;-3.22;nan;-23723.84;5034356;28;20565;-72
2022/12/21 02:51:19;;;;;;;7.33;3.97;;;;;;;-3.37;nan;-23719.38;5031467;28;20175;-71
2022/12/21 02:53:45;;;;;;;6.03;3.57;;;;;;;-3.33;nan;-23720.53;5030896;28;20175;-71
2022/12/21 02:56:19;;;;;;;7.10;4.23;;;;;;;-3.69;nan;-23710.31;5031456;28;20202;-71
2022/12/21 02:58:45;;;;;;;9.63;4.47;;;;;;;-3.47;nan;-23716.66;5031568;28;20199;-72
2022/12/21 03:01:29;;;;;;;6.70;4.57;;;;;;;-3.78;nan;-23707.88;5031967;28;20179;-71
2022/12/21 03:04:00;;;;;;;9.80;4.93;;;;;;;-3.40;nan;-23718.53;5032041;28;20219;-70
2022/12/21 03:06:25;;;;;;;3.53;3.23;;;;;;;-3.40;nan;-23718.66;5031448;28;20589;-72
2022/12/21 03:09:13;;;;;;;3.80;3.47;;;;;;;-3.40;nan;-23718.53;5032398;28;20171;-71
2022/12/21 03:12:20;;;;;;;4.57;3.33;;;;;;;-3.24;nan;-23723.28;5031672;28;20172;-71
2022/12/21 03:14:56;;;;;;;3.40;2.77;;;;;;;-3.57;nan;-23713.91;5024209;28;20627;-71
2022/12/21 03:17:35;;;;;;;11.83;3.80;;;;;;;-3.76;nan;-23708.44;5031226;28;20580;-71
2022/12/21 03:20:01;;;;;;;4.80;3.80;;;;;;;-3.41;nan;-23718.22;5032358;28;20229;-72
2022/12/21 03:22:46;;;;;;;5.83;3.33;;;;;;;-3.84;nan;-23706.16;5034315;28;20195;-70
2022/12/21 03:25:27;;;;;;;4.43;3.77;;;;;;;-3.53;nan;-23714.78;5023584;28;20184;-70
2022/12/21 03:27:57;;;;;;;4.00;3.53;;;;;;;-3.38;nan;-23719.25;5031835;28;20261;-70
2022/12/21 03:30:25;;;;;;;5.07;4.37;;;;;;;-3.83;nan;-23706.28;5031843;28;20261;-71
2022/12/21 03:32:52;;;;;;;3.93;3.50;;;;;;;-3.43;nan;-23717.81;5031404;28;20179;-71
2022/12/21 03:35:26;;;;;;;4.07;3.77;;;;;;;-3.77;nan;-23708.16;5031731;28;20168;-71
2022/12/21 03:37:54;;;;;;;4.17;3.47;;;;;;;-3.44;nan;-23717.38;5031346;28;20625;-71
2022/12/21 03:40:30;;;;;;;4.97;3.67;;;;;;;-3.54;nan;-23714.63;5031449;28;20235;-71
2022/12/21 03:43:03;;;;;;;7.00;4.80;;;;;;;-4.03;nan;-23700.81;5031605;28;20179;-71
2022/12/21 03:45:38;;;;;;;3.87;2.57;;;;;;;-3.82;nan;-23706.72;5035319;28;20180;-70
2022/12/21 03:48:18;;;;;;;3.63;3.33;;;;;;;-3.26;nan;-23722.69;5034814;28;20171;-71
2022/12/21 03:50:49;;;;;;;3.07;2.87;;;;;;;-3.66;nan;-23711.31;5035166;28;20258;-72
2022/12/21 03:53:37;;;;;;;3.57;3.27;;;;;;;-3.31;nan;-23721.09;5034876;28;20187;-70
2022/12/21 03:56:07;;;;;;;5.43;3.30;;;;;;;-3.63;nan;-23712.03;5035056;28;20614;-70
2022/12/21 03:58:35;;;;;;;5.80;3.77;;;;;;;-3.39;nan;-23718.94;5034802;28;20282;-69
2022/12/21 04:01:13;;;;;;;7.47;4.10;;;;;;;-3.35;nan;-23720.09;5037067;28;20312;-71
2022/12/21 04:03:42;;;;;;;2.97;2.70;;;;;;;-3.51;nan;-23715.50;5034465;28;20231;-72
2022/12/21 04:06:12;;;;;;;5.00;4.00;;;;;;;-3.89;nan;-23704.56;5034301;28;20278;-71
2022/12/21 04:08:38;;;;;;;5.27;2.93;;;;;;;-3.48;nan;-23716.22;5034757;28;20179;-73
2022/12/21 04:11:05;;;;;;;3.57;3.23;;;;;;;-3.66;nan;-23711.19;5034078;28;20180;-71
2022/12/21 04:13:30;;;;;;;2.97;2.70;;;;;;;-3.74;nan;-23708.88;5034534;28;20239;-70
2022/12/21 04:16:04;;;;;;;2.93;2.70;;;;;;;-3.50;nan;-23715.63;5034902;28;20191;-70
2022/12/21 04:21:17;;;;;;;11.10;3.73;;;;;;;-3.44;nan;-23717.38;5035621;28;20206;-70
2022/12/21 04:29:12;;;;;;;6.27;3.37;;;;;;;-3.57;nan;-23713.91;5034863;28;20582;-70
2022/12/21 04:31:38;;;;;;;3.40;2.60;;;;;;;-3.61;nan;-23712.75;5036764;28;20176;-69
2022/12/21 04:34:03;;;;;;;6.63;4.60;;;;;;;-3.34;nan;-23720.25;5037465;28;20266;-71
2022/12/21 04:39:13;;;;;;;4.97;3.27;;;;;;;-3.78;nan;-23707.72;5035997;28;20268;-72
2022/12/21 04:41:38;;;;;;;3.40;2.50;;;;;;;-3.18;nan;-23725.00;5036277;28;20179;-71
2022/12/21 04:44:04;;;;;;;3.87;2.67;;;;;;;-3.21;nan;-23723.97;5035535;28;20215;-71
2022/12/21 04:46:29;;;;;;;4.10;2.73;;;;;;;-3.24;nan;-23723.13;5037431;28;20213;-71
2022/12/21 04:48:55;;;;;;;5.10;4.20;;;;;;;-3.56;nan;-23714.19;5035771;28;20179;-71
2022/12/21 04:51:23;;;;;;;4.80;3.63;;;;;;;-3.71;nan;-23709.75;5035630;28;20179;-71
2022/12/21 04:53:49;;;;;;;9.87;4.07;;;;;;;-3.42;nan;-23718.09;5037011;28;20179;-71
2022/12/21 04:56:15;;;;;;;5.80;2.67;;;;;;;-3.49;nan;-23716.06;5033391;28;20266;-73
2022/12/21 04:58:41;;;;;;;3.37;3.07;;;;;;;-3.29;nan;-23721.69;5035621;28;20190;-71
2022/12/21 05:01:11;;;;;;;7.30;3.83;;;;;;;-3.56;nan;-23714.19;5036673;28;20230;-71
2022/12/21 05:03:37;;;;;;;4.23;3.10;;;;;;;-3.54;nan;-23714.50;5035590;28;20215;-72
2022/12/21 05:06:02;;;;;;;2.53;2.33;;;;;;;-3.90;nan;-23704.41;5037113;28;20186;-73
2022/12/21 05:08:28;;;;;;;2.83;2.57;;;;;;;-3.42;nan;-23717.94;5035970;28;20179;-69
2022/12/21 05:10:53;;;;;;;3.23;2.93;;;;;;;-3.45;nan;-23717.09;5035431;28;20181;-71
2022/12/21 05:13:19;;;;;;;3.90;3.03;;;;;;;-3.81;nan;-23707.00;5036006;28;20214;-72
2022/12/21 05:15:45;;;;;;;3.53;2.93;;;;;;;-3.57;nan;-23713.78;5035870;28;20558;-73
2022/12/21 05:18:11;;;;;;;4.17;3.77;;;;;;;-3.35;nan;-23720.09;5035576;28;20198;-72
2022/12/21 05:20:36;;;;;;;4.40;3.97;;;;;;;-3.37;nan;-23719.38;5035058;28;20619;-71
2022/12/21 05:23:01;;;;;;;6.23;4.73;;;;;;;-3.38;nan;-23719.25;5036259;28;20182;-69
2022/12/21 05:25:27;;;;;;;3.60;3.20;;;;;;;-3.51;nan;-23715.50;5031134;28;20179;-70
2022/12/21 05:27:52;;;;;;;6.97;3.73;;;;;;;-3.69;nan;-23710.47;5032929;28;20183;-72
2022/12/21 05:30:18;;;;;;;3.33;3.03;;;;;;;-3.97;nan;-23702.41;5035133;28;20194;-72
2022/12/21 05:32:43;;;;;;;3.20;2.93;;;;;;;-3.58;nan;-23713.63;5032647;28;20534;-69
2022/12/21 05:35:09;;;;;;;3.30;2.90;;;;;;;-3.78;nan;-23707.88;5032119;28;20635;-73
2022/12/21 05:37:34;;;;;;;3.13;2.83;;;;;;;-3.70;nan;-23710.16;5032308;28;20200;-71
2022/12/21 05:39:59;;;;;;;6.00;3.33;;;;;;;-3.82;nan;-23706.72;5031989;28;20167;-72
2022/12/21 05:42:25;;;;;;;3.10;2.60;;;;;;;-4.07;nan;-23699.66;5032289;28;20171;-71
2022/12/21 05:44:50;;;;;;;9.83;4.60;;;;;;;-3.84;nan;-23706.00;5032510;28;20168;-71
2022/12/21 05:47:16;;;;;;;4.83;2.63;;;;;;;-3.71;nan;-23709.88;5031903;28;20650;-72
2022/12/21 05:49:41;;;;;;;4.83;4.40;;;;;;;-4.16;nan;-23697.06;5032135;28;20226;-73
2022/12/21 05:52:07;;;;;;;3.57;2.67;;;;;;;-3.72;nan;-23709.47;5031614;28;20564;-71
2022/12/21 05:54:32;;;;;;;2.77;2.57;;;;;;;-4.24;nan;-23694.63;5031164;28;20180;-72
2022/12/21 05:56:57;;;;;;;3.20;2.67;;;;;;;-4.16;nan;-23696.94;5030305;28;20179;-70
2022/12/21 05:59:23;;;;;;;5.80;3.90;;;;;;;-5.08;nan;-23670.72;5031655;28;20179;-71
2022/12/21 06:01:48;;;;;;;6.47;3.17;;;;;;;-3.70;nan;-23710.16;5031374;28;20195;-73
2022/12/21 06:04:14;;;;;;;5.70;3.50;;;;;;;-3.93;nan;-23703.41;5031632;28;20219;-71
2022/12/21 06:06:39;;;;;;;5.03;4.57;;;;;;;-3.67;nan;-23710.91;5030532;28;20210;-69
2022/12/21 06:09:05;;;;;;;3.43;3.13;;;;;;;-3.56;nan;-23714.19;5031467;28;20179;-72
2022/12/21 06:11:32;;;;;;;3.77;3.47;;;;;;;-3.67;nan;-23710.91;5031541;28;20180;-71
2022/12/21 06:13:58;;;;;;;4.83;3.70;;;;;;;-3.70;nan;-23710.03;5031814;28;20179;-72
2022/12/21 06:16:25;;;;;;;5.07;4.57;;;;;;;-3.21;nan;-23723.97;5033151;28;20271;-72
2022/12/21 06:18:52;;;;;;;3.97;3.57;;;;;;;-3.17;nan;-23725.13;5031738;28;20217;-74
2022/12/21 06:21:18;;;;;;;3.77;3.47;;;;;;;-3.39;nan;-23718.94;5032447;28;20262;-74
2022/12/21 06:23:45;;;;;;;5.63;3.20;;;;;;;-3.52;nan;-23715.22;5031587;28;20184;-72
2022/12/21 06:26:16;;;;;;;3.27;2.97;;;;;;;-4.70;nan;-23681.53;5032039;28;20603;-75
2022/12/21 06:28:45;;;;;;;10.97;4.43;;;;;;;-2.80;nan;-23735.78;5031767;28;20300;-73
2022/12/21 06:31:12;;;;;;;4.40;4.00;;;;;;;-3.09;nan;-23727.28;5031721;28;20187;-75
2022/12/21 06:33:39;;;;;;;7.47;4.77;;;;;;;-2.87;nan;-23733.75;5031727;28;20265;-72
2022/12/21 06:36:06;;;;;;;4.97;3.23;;;;;;;-3.44;nan;-23717.50;5031663;28;20170;-76
2022/12/21 06:38:32;;;;;;;4.90;3.20;;;;;;;-2.67;nan;-23739.50;5031942;28;20194;-75
2022/12/21 06:41:02;;;;;;;7.47;4.10;;;;;;;-2.54;nan;-23743.09;5031678;28;20168;-75
2022/12/21 06:43:29;;;;;;;5.37;4.53;;;;;;;-2.57;nan;-23742.25;5030076;28;20274;-74
2022/12/21 06:46:01;;;;;;;6.63;3.47;;;;;;;-2.15;nan;-23754.16;5031243;28;20197;-73
2022/12/21 06:48:27;;;;;;;6.10;3.30;;;;;;;-1.99;nan;-23758.63;5030726;28;20205;-72
2022/12/21 06:50:54;;;;;;;5.33;3.47;;;;;;;-2.36;nan;-23748.28;5031332;28;20192;-72
2022/12/21 06:53:22;;;;;;;7.03;3.87;;;;;;;-1.95;nan;-23759.91;5031532;28;20179;-72
2022/12/21 06:55:47;;;;;;;5.83;3.23;;;;;;;-2.27;nan;-23750.72;5030929;28;20186;-72
2022/12/21 06:58:13;;;;;;;4.53;3.27;;;;;;;-1.90;nan;-23761.34;5031171;28;20255;-73
2022/12/21 07:00:39;;;;;;;5.60;4.10;;;;;;;-1.89;nan;-23761.63;5031447;28;20170;-72
2022/12/21 07:03:05;;;;;;;3.80;3.40;;;;;;;-1.83;nan;-23763.34;5030918;28;20317;-71
2022/12/21 07:05:30;;;;;;;5.27;4.30;;;;;;;-2.03;nan;-23757.59;5031525;28;20239;-71
2022/12/21 07:07:56;;;;;;;6.37;4.13;;;;;;;-1.90;nan;-23761.34;5035186;28;20203;-73
2022/12/21 07:10:21;;;;;;;12.37;4.50;;;;;;;-2.01;nan;-23758.19;5029635;28;20187;-72
2022/12/21 07:12:47;;;;;;;6.80;3.43;;;;;;;-1.75;nan;-23765.34;5030695;28;20205;-71
2022/12/21 07:15:12;;;;;;;8.13;4.87;;;;;;;-1.71;nan;-23766.66;5031288;28;20176;-73
2022/12/21 07:17:38;;;;;;;6.67;3.40;;;;;;;-1.43;nan;-23774.53;5030608;28;20237;-72
2022/12/21 07:20:04;;;;;;;5.10;4.43;;;;;;;-1.48;nan;-23773.25;5033622;28;20642;-73
2022/12/21 07:22:29;;;;;;;3.50;3.20;;;;;;;-1.70;nan;-23766.78;5034564;28;20183;-72
2022/12/21 07:24:54;;;;;;;12.10;5.23;;;;;;;-1.63;nan;-23768.81;5034460;28;20184;-72
2022/12/21 07:27:20;;;;;;;9.20;4.83;;;;;;;-1.51;nan;-23772.25;5034516;28;20614;-74
2022/12/21 07:29:45;;;;;;;5.30;3.53;;;;;;;-1.48;nan;-23773.25;5034677;28;20190;-72
2022/12/21 07:32:11;;;;;;;8.80;4.37;;;;;;;-1.11;nan;-23783.59;5034028;28;20199;-72
2022/12/21 07:34:36;;;;;;;7.80;3.93;;;;;;;-0.91;nan;-23789.47;5034626;28;20172;-72
2022/12/21 07:37:02;;;;;;;6.17;3.13;;;;;;;-1.34;nan;-23777.25;5034490;28;20203;-72
2022/12/21 07:39:27;;;;;;;4.53;3.80;;;;;;;-1.10;nan;-23783.88;5033172;28;20202;-72
2022/12/21 07:41:52;;;;;;;6.37;4.33;;;;;;;-1.17;nan;-23781.84;5034496;28;20167;-71
2022/12/21 07:44:18;;;;;;;12.47;4.30;;;;;;;-0.86;nan;-23790.59;5033739;28;20270;-72
2022/12/21 07:46:44;;;;;;;4.27;3.83;;;;;;;-1.19;nan;-23781.44;5034171;28;20230;-71
2022/12/21 07:49:09;;;;;;;5.87;3.53;;;;;;;-0.95;nan;-23788.31;5033817;28;20163;-70
2022/12/21 07:51:35;;;;;;;5.30;3.73;;;;;;;-0.87;nan;-23790.47;5033839;28;20361;-72
2022/12/21 07:54:00;;;;;;;6.87;4.03;;;;;;;-0.83;nan;-23791.59;5033667;28;20183;-71
2022/12/21 07:56:26;;;;;;;6.37;4.17;;;;;;;-0.73;nan;-23794.34;5033048;28;20184;-72
2022/12/21 07:58:51;;;;;;;4.10;3.03;;;;;;;-0.30;nan;-23806.66;5033996;28;20207;-71
2022/12/21 08:01:19;;;;;;;5.23;3.83;;;;;;;-0.16;nan;-23810.53;5033827;28;20234;-72
2022/12/21 08:03:45;;;;;;;5.80;3.50;;;;;;;-0.41;nan;-23803.34;5033196;28;20269;-71
2022/12/21 08:06:11;;;;;;;7.33;4.53;;;;;;;-0.45;nan;-23802.50;5033773;28;20194;-71
2022/12/21 08:08:38;;;;;;;3.97;3.40;;;;;;;-0.51;nan;-23800.78;5033643;28;20267;-73
2022/12/21 08:11:04;;;;;;;7.80;3.93;;;;;;;-0.26;nan;-23807.66;5033841;28;20176;-71
2022/12/21 08:13:31;;;;;;;4.20;3.60;;;;;;;-0.30;nan;-23806.50;5033732;28;20218;-72
2022/12/21 08:16:04;;;;;;;5.97;4.33;;;;;;;0.10;nan;-23817.81;5032294;28;20257;-72
2022/12/21 08:18:30;;;;;;;5.17;3.40;;;;;;;0.36;nan;-23825.41;5033567;28;20213;-73
2022/12/21 08:20:56;;;;;;;7.60;3.93;;;;;;;0.52;nan;-23829.84;5032575;28;20703;-73
2022/12/21 08:23:22;;;;;;;5.27;3.17;;;;;;;0.49;nan;-23828.84;5033868;28;20285;-74
2022/12/21 08:25:48;;;;;;;2.93;2.67;;;;;;;0.27;nan;-23822.69;5033924;28;20205;-71
2022/12/21 08:28:13;;;;;;;3.57;3.23;;;;;;;0.56;nan;-23831.00;5033778;28;20238;-70
2022/12/21 08:30:39;;;;;;;5.80;3.90;;;;;;;0.63;nan;-23833.00;5033226;28;20225;-72
2022/12/21 08:33:04;;;;;;;8.40;3.30;;;;;;;0.60;nan;-23832.13;5032194;28;20253;-73
2022/12/21 08:35:30;;;;;;;3.83;3.13;;;;;;;0.76;nan;-23836.56;5033450;28;20306;-73
2022/12/21 08:37:55;;;;;;;6.60;3.63;;;;;;;0.91;nan;-23840.72;5033123;28;20696;-72
2022/12/21 08:40:21;;;;;;;7.70;3.43;;;;;;;1.48;nan;-23857.03;5032573;28;20195;-73
2022/12/21 08:42:46;;;;;;;6.37;3.47;;;;;;;1.51;nan;-23857.88;5033251;28;20233;-73
2022/12/21 08:45:12;;;;;;;3.67;2.93;;;;;;;1.66;nan;-23862.03;5032814;28;20594;-72
2022/12/21 08:47:38;;;;;;;4.10;3.70;;;;;;;1.47;nan;-23856.75;5033124;28;20172;-71
2022/12/21 08:50:05;;;;;;;6.10;3.97;;;;;;;1.94;nan;-23870.03;5033464;28;20176;-72
2022/12/21 08:52:31;;;;;;;4.20;3.17;;;;;;;2.01;nan;-23871.88;5033227;28;20199;-72
2022/12/21 08:54:57;;;;;;;10.17;4.03;;;;;;;1.72;nan;-23863.75;5032683;28;20206;-72
2022/12/21 08:57:22;;;;;;;3.83;2.90;;;;;;;1.75;nan;-23864.75;5032642;28;20706;-72
2022/12/21 08:59:48;;;;;;;6.97;3.80;;;;;;;1.85;nan;-23867.47;5031025;28;20232;-72
2022/12/21 09:02:14;;;;;;;4.23;2.90;;;;;;;2.27;nan;-23879.31;5034144;28;20175;-74
2022/12/21 09:04:39;;;;;;;3.97;3.17;;;;;;;2.32;nan;-23880.59;5033296;28;20255;-73
2022/12/21 09:07:04;;;;;;;5.30;3.70;;;;;;;2.11;nan;-23874.75;5032813;28;20650;-72
2022/12/21 09:09:30;;;;;;;4.47;3.87;;;;;;;2.56;nan;-23887.44;5032785;28;20218;-72
2022/12/21 09:11:55;;;;;;;3.97;3.37;;;;;;;2.74;nan;-23892.59;5030937;28;20225;-72
2022/12/21 09:14:21;;;;;;;7.03;4.00;;;;;;;2.74;nan;-23892.59;5030994;28;20179;-73
2022/12/21 09:16:46;;;;;;;4.83;3.83;;;;;;;2.53;nan;-23886.75;5031312;28;20179;-73
2022/12/21 09:19:12;;;;;;;6.03;3.97;;;;;;;2.64;nan;-23889.72;5032531;28;20226;-72
2022/12/21 09:21:37;;;;;;;4.20;3.67;;;;;;;2.96;nan;-23898.88;5032378;28;20176;-71
2022/12/21 09:24:03;;;;;;;6.83;4.37;;;;;;;2.89;nan;-23896.72;5032506;28;20232;-75
2022/12/21 09:26:29;;;;;;;5.60;4.00;;;;;;;3.07;nan;-23901.84;5032814;28;20178;-72
2022/12/21 09:28:54;;;;;;;6.53;4.23;;;;;;;2.86;nan;-23895.88;5032551;28;20175;-73
2022/12/21 09:31:21;;;;;;;6.27;3.47;;;;;;;3.13;nan;-23903.56;5032976;28;20172;-72
2022/12/21 09:33:47;;;;;;;25.47;4.47;;;;;;;2.84;nan;-23895.28;5033274;28;20176;-73
2022/12/21 09:36:13;;;;;;;7.63;4.80;;;;;;;3.08;nan;-23902.16;5031974;28;20293;-73
2022/12/21 09:38:40;;;;;;;4.20;3.23;;;;;;;2.86;nan;-23896.00;5031338;28;20203;-70
2022/12/21 09:41:05;;;;;;;8.27;4.77;;;;;;;3.30;nan;-23908.41;5034906;28;20190;-72
2022/12/21 09:43:46;;;;;;;6.97;3.77;;;;;;;3.16;nan;-23904.44;5031113;28;20198;-72
2022/12/21 09:46:14;;;;;;;6.47;3.80;;;;;;;3.52;nan;-23914.53;5031393;28;20538;-72
2022/12/21 09:48:56;;;;;;;5.03;3.87;;;;;;;3.46;nan;-23912.97;5031195;28;20261;-71
2022/12/21 09:51:27;;;;;;;7.03;4.37;;;;;;;3.54;nan;-23915.25;5030411;28;20179;-74
2022/12/21 09:54:02;;;;;;;6.20;3.73;;;;;;;3.69;nan;-23919.41;5032598;28;20175;-74
2022/12/21 09:56:29;;;;;;;8.03;5.57;;;;;;;3.47;nan;-23913.13;5033970;28;20189;-74
2022/12/21 09:58:59;;;;;;;8.77;4.80;;;;;;;3.86;nan;-23924.25;5032086;28;20191;-74
2022/12/21 10:01:37;;;;;;;5.47;3.67;;;;;;;3.69;nan;-23919.41;5031912;28;20261;-72
2022/12/21 10:04:14;;;;;;;4.23;3.10;;;;;;;4.20;nan;-23933.78;5032204;28;20219;-75
2022/12/21 10:06:52;;;;;;;11.67;4.30;;;;;;;4.14;nan;-23931.94;5031029;28;20281;-74
2022/12/21 10:09:20;;;;;;;5.33;3.80;;;;;;;3.95;nan;-23926.66;5032677;28;20211;-73
2022/12/21 10:11:54;;;;;;;7.00;4.20;;;;;;;4.13;nan;-23931.66;5031921;28;20175;-72
2022/12/21 10:14:38;;;;;;;5.33;3.77;;;;;;;3.68;nan;-23919.09;5031755;28;20195;-72
2022/12/21 10:17:09;;;;;;;5.00;4.50;;;;;;;4.13;nan;-23931.78;5031819;28;20527;-75
2022/12/21 10:19:34;;;;;;;8.43;4.13;;;;;;;4.11;nan;-23931.22;5031804;28;20179;-73
2022/12/21 10:22:17;;;;;;;8.83;4.53;;;;;;;4.32;nan;-23937.06;5032012;28;20657;-72
2022/12/21 10:24:42;;;;;;;8.53;4.73;;;;;;;4.78;nan;-23950.00;5032120;28;20167;-71
2022/12/21 10:27:17;;;;;;;8.30;4.50;;;;;;;4.28;nan;-23936.06;5032290;28;20171;-73
2022/12/21 10:29:49;;;;;;;8.20;5.10;;;;;;;4.34;nan;-23937.78;5030448;28;20665;-72
2022/12/21 10:32:15;;;;;;;8.63;4.77;;;;;;;4.66;nan;-23946.59;5032270;28;20924;-74
2022/12/21 10:34:47;;;;;;;11.90;5.33;;;;;;;4.54;nan;-23943.31;5031254;28;20182;-71
2022/12/21 10:37:19;;;;;;;4.90;3.77;;;;;;;4.72;nan;-23948.31;5031770;28;20240;-73
2022/12/21 10:39:46;;;;;;;3.57;3.20;;;;;;;4.22;nan;-23934.34;5031486;28;20270;-71
2022/12/21 10:42:36;;;;;;;5.93;4.07;;;;;;;4.66;nan;-23946.59;5031494;28;20195;-71
2022/12/21 10:45:02;;;;;;;4.33;3.50;;;;;;;4.59;nan;-23944.75;5031594;28;20257;-72
2022/12/21 10:47:27;;;;;;;6.60;3.87;;;;;;;4.79;nan;-23950.28;5031346;28;20658;-74
2022/12/21 10:50:03;;;;;;;3.43;3.07;;;;;;;4.92;nan;-23954.00;5031508;28;20182;-75
2022/12/21 10:52:32;;;;;;;4.37;3.30;;;;;;;5.20;nan;-23961.97;5031483;28;20171;-71
2022/12/21 10:54:57;;;;;;;6.40;3.30;;;;;;;5.31;nan;-23965.09;5035134;28;20179;-72
2022/12/21 10:57:29;;;;;;;5.53;3.47;;;;;;;4.89;nan;-23953.13;5035653;28;20182;-73
2022/12/21 10:59:54;;;;;;;5.13;3.27;;;;;;;5.04;nan;-23957.41;5035748;28;20167;-72
2022/12/21 11:02:45;;;;;;;3.57;3.13;;;;;;;5.38;nan;-23966.94;5035519;28;20183;-72
2022/12/21 11:05:32;;;;;;;4.43;2.90;;;;;;;5.43;nan;-23968.34;5035006;28;20226;-72
2022/12/21 11:08:14;;;;;;;3.97;3.40;;;;;;;5.30;nan;-23964.81;5035758;28;20190;-71
2022/12/21 11:10:46;;;;;;;5.33;3.97;;;;;;;4.97;nan;-23955.41;5035428;28;20171;-72
2022/12/21 11:13:13;;;;;;;7.70;3.40;;;;;;;5.17;nan;-23961.09;5035412;28;20243;-72
2022/12/21 11:15:54;;;;;;;3.77;2.50;;;;;;;4.97;nan;-23955.28;5035333;28;20625;-72
2022/12/21 11:18:49;;;;;;;3.87;2.83;;;;;;;5.19;nan;-23961.53;5035267;28;20222;-72
2022/12/21 11:21:36;;;;;;;3.03;2.73;;;;;;;5.24;nan;-23962.94;5032545;28;20214;-73
2022/12/21 11:24:04;;;;;;;5.60;2.67;;;;;;;4.84;nan;-23951.84;5034520;28;20168;-71
2022/12/21 11:26:35;;;;;;;2.90;2.63;;;;;;;5.02;nan;-23956.84;5036824;28;20253;-72
2022/12/21 11:29:11;;;;;;;4.57;2.87;;;;;;;5.13;nan;-23959.97;5035451;28;20194;-73
2022/12/21 11:31:37;;;;;;;2.87;2.67;;;;;;;5.09;nan;-23958.81;5035182;28;20554;-72
2022/12/21 11:34:03;;;;;;;5.77;2.63;;;;;;;5.14;nan;-23960.25;5034902;28;20218;-72
2022/12/21 11:36:29;;;;;;;3.57;2.73;;;;;;;5.27;nan;-23963.81;5034825;28;20644;-73
2022/12/21 11:38:54;;;;;;;3.00;2.73;;;;;;;5.54;nan;-23971.47;5034722;28;20195;-73
2022/12/21 11:41:25;;;;;;;2.40;2.20;;;;;;;5.16;nan;-23960.69;5035066;28;20183;-74
2022/12/21 11:43:51;;;;;;;3.87;2.97;;;;;;;5.29;nan;-23964.50;5034797;28;20171;-73
2022/12/21 11:46:53;;;;;;;4.60;3.07;;;;;;;5.52;nan;-23970.78;5033299;28;20195;-73
2022/12/21 11:49:38;;;;;;;5.33;2.77;;;;;;;5.59;nan;-23972.91;5028560;28;20306;-72
2022/12/21 11:52:44;;;;;;;4.97;2.97;;;;;;;5.46;nan;-23969.06;5034883;28;20649;-73
2022/12/21 11:55:21;;;;;;;2.77;2.13;;;;;;;5.48;nan;-23969.63;5022549;28;20210;-72
2022/12/21 11:58:13;;;;;;;4.57;3.23;;;;;;;5.55;nan;-23971.63;5034844;28;20260;-73
2022/12/21 12:00:57;;;;;;;3.50;2.73;;;;;;;5.53;nan;-23971.19;5035358;28;20527;-74
2022/12/21 12:03:32;;;;;;;4.87;2.77;;;;;;;5.32;nan;-23965.38;5032897;28;20175;-73
2022/12/21 12:06:15;;;;;;;4.50;3.27;;;;;;;5.91;nan;-23981.72;5034070;28;20186;-72
2022/12/21 12:08:55;;;;;;;3.97;3.13;;;;;;;5.95;nan;-23983.00;5034195;28;20181;-75